createdAt,value
2019-03-23T00:03:53.803Z,11.77
2019-03-23T00:06:42.570Z,12.10
2019-03-23T00:09:31.349Z,12.27
2019-03-23T00:12:20.123Z,11.67
2019-03-23T00:15:29.815Z,10.17
2019-03-23T00:18:18.589Z,11.20
2019-03-23T00:21:07.354Z,11.20
2019-03-23T00:23:56.135Z,11.60
2019-03-23T00:26:44.898Z,10.80
2019-03-23T00:29:26.381Z,12.20
2019-03-23T00:32:15.162Z,12.20
2019-03-23T00:38:32.416Z,11.40
2019-03-23T00:41:21.196Z,11.53
2019-03-23T00:44:09.966Z,10.77
2019-03-23T00:46:58.741Z,9.90
2019-03-23T00:49:47.515Z,10.30
2019-03-23T00:52:36.294Z,9.60
2019-03-23T00:55:25.094Z,10.10
2019-03-23T00:58:13.887Z,10.10
2019-03-23T01:01:02.664Z,9.67
2019-03-23T01:03:51.446Z,9.70
2019-03-23T01:06:40.283Z,10.50
2019-03-23T01:09:28.990Z,9.73
2019-03-23T01:12:17.775Z,10.10
2019-03-23T01:15:25.854Z,9.47
2019-03-23T01:18:14.671Z,9.70
2019-03-23T01:21:03.409Z,9.87
2019-03-23T01:23:52.198Z,9.63
2019-03-23T01:26:40.977Z,10.00
2019-03-23T01:29:22.839Z,10.57
2019-03-23T01:32:11.599Z,9.60
2019-03-23T01:34:41.027Z,10.07
2019-03-23T01:37:10.520Z,10.13
2019-03-23T01:39:59.279Z,10.27
2019-03-23T01:42:48.066Z,10.80
2019-03-23T01:45:36.851Z,10.70
2019-03-23T01:48:25.729Z,10.80
2019-03-23T01:51:14.446Z,11.07
2019-03-23T01:54:03.223Z,10.70
2019-03-23T01:56:51.995Z,10.57
2019-03-23T01:59:40.773Z,11.10
2019-03-23T02:02:29.563Z,10.27
2019-03-23T02:05:18.361Z,11.33
2019-03-23T02:08:07.139Z,10.83
2019-03-23T02:10:55.916Z,10.87
2019-03-23T02:13:44.686Z,9.77
2019-03-23T02:16:33.462Z,10.03
2019-03-23T02:19:22.228Z,10.07
2019-03-23T02:22:11.007Z,10.37
2019-03-23T02:24:59.789Z,10.43
2019-03-23T02:27:48.587Z,10.00
2019-03-23T02:30:37.360Z,10.00
2019-03-23T02:33:26.131Z,10.53
2019-03-23T02:36:14.905Z,10.10
2019-03-23T02:42:18.505Z,9.83
2019-03-23T02:45:26.680Z,10.00
2019-03-23T02:48:15.450Z,10.87
2019-03-23T02:51:04.249Z,10.13
2019-03-23T02:53:52.986Z,10.33
2019-03-23T02:56:41.756Z,10.00
2019-03-23T02:59:30.526Z,10.47
2019-03-23T03:02:19.303Z,9.23
2019-03-23T03:05:28.980Z,10.13
2019-03-23T03:08:17.766Z,10.00
2019-03-23T03:11:06.608Z,9.37
2019-03-23T03:13:55.379Z,10.00
2019-03-23T03:16:44.641Z,9.87
2019-03-23T03:19:14.650Z,9.77
2019-03-23T03:22:03.476Z,10.30
2019-03-23T03:24:52.294Z,10.60
2019-03-23T03:27:41.058Z,9.83
2019-03-23T03:30:22.609Z,9.57
2019-03-23T03:33:11.395Z,9.47
2019-03-23T03:36:00.168Z,9.10
2019-03-23T03:38:29.608Z,9.10
2019-03-23T03:44:08.669Z,9.50
2019-03-23T03:46:38.097Z,9.43
2019-03-23T03:49:26.882Z,8.70
2019-03-23T03:52:15.644Z,8.40
2019-03-23T03:54:45.073Z,8.93
2019-03-23T03:57:33.846Z,9.00
2019-03-23T04:00:22.630Z,9.70
2019-03-23T04:03:04.836Z,9.80
2019-03-23T04:05:53.602Z,8.97
2019-03-23T04:08:42.391Z,9.27
2019-03-23T04:11:31.142Z,8.90
2019-03-23T04:14:19.920Z,9.20
2019-03-23T04:17:08.682Z,9.40
2019-03-23T04:20:16.554Z,9.70
2019-03-23T04:23:05.288Z,8.97
2019-03-23T04:25:54.115Z,9.20
2019-03-23T04:28:42.871Z,9.90
2019-03-23T04:31:31.640Z,9.60
2019-03-23T04:34:20.683Z,9.43
2019-03-23T04:37:09.450Z,9.77
2019-03-23T04:39:58.231Z,8.87
2019-03-23T04:42:46.995Z,9.23
2019-03-23T04:45:35.771Z,9.73
2019-03-23T04:48:24.537Z,9.37
2019-03-23T04:51:13.311Z,10.23
2019-03-23T04:54:02.092Z,10.07
2019-03-23T04:56:50.878Z,9.90
2019-03-23T04:59:39.656Z,10.33
2019-03-23T05:02:21.146Z,10.07
2019-03-23T05:05:09.988Z,10.00
2019-03-23T05:07:58.758Z,9.53
2019-03-23T05:10:47.591Z,9.73
2019-03-23T05:13:36.359Z,10.50
2019-03-23T05:16:25.127Z,9.37
2019-03-23T05:19:13.913Z,9.60
2019-03-23T05:22:02.680Z,9.47
2019-03-23T05:24:51.500Z,9.43
2019-03-23T05:27:40.268Z,9.20
2019-03-23T05:30:29.049Z,9.57
2019-03-23T05:33:17.814Z,9.87
2019-03-23T05:36:06.616Z,9.17
2019-03-23T05:38:55.368Z,8.90
2019-03-23T05:41:44.150Z,9.60
2019-03-23T05:44:32.933Z,9.23
2019-03-23T05:47:21.706Z,9.03
2019-03-23T05:50:05.245Z,8.73
2019-03-23T05:52:54.017Z,9.53
2019-03-23T05:55:42.794Z,8.57
2019-03-23T05:58:31.575Z,8.80
2019-03-23T06:01:20.353Z,9.30
2019-03-23T06:04:09.128Z,9.00
2019-03-23T06:06:57.901Z,9.47
2019-03-23T06:09:46.736Z,9.10
2019-03-23T06:12:35.492Z,8.50
2019-03-23T06:15:24.287Z,8.77
2019-03-23T06:18:13.051Z,8.73
2019-03-23T06:21:01.820Z,9.13
2019-03-23T06:23:50.595Z,9.47
2019-03-23T06:26:39.384Z,9.10
2019-03-23T06:29:28.178Z,9.33
2019-03-23T06:32:16.948Z,9.43
2019-03-23T06:38:20.550Z,8.87
2019-03-23T06:41:09.319Z,8.57
2019-03-23T06:43:58.088Z,9.50
2019-03-23T06:46:46.881Z,9.23
2019-03-23T06:49:28.304Z,9.07
2019-03-23T06:52:17.087Z,9.40
2019-03-23T06:55:26.772Z,8.83
2019-03-23T06:58:15.542Z,9.53
2019-03-23T07:01:04.324Z,9.30
2019-03-23T07:03:53.097Z,8.90
2019-03-23T07:06:41.880Z,9.30
2019-03-23T07:09:30.667Z,9.43
2019-03-23T07:12:19.437Z,8.80
2019-03-23T07:15:29.147Z,8.90
2019-03-23T07:18:17.933Z,8.20
2019-03-23T07:21:06.732Z,9.27
2019-03-23T07:23:55.502Z,9.00
2019-03-23T07:26:44.302Z,9.57
2019-03-23T07:29:33.096Z,9.87
2019-03-23T07:35:50.448Z,9.00
2019-03-23T07:38:39.230Z,9.63
2019-03-23T07:41:28.006Z,9.53
2019-03-23T07:44:16.781Z,9.20
2019-03-23T07:47:05.563Z,9.20
2019-03-23T07:49:47.569Z,9.37
2019-03-23T07:52:36.488Z,9.30
2019-03-23T07:55:25.269Z,8.63
2019-03-23T07:58:14.135Z,9.40
2019-03-23T08:01:02.913Z,9.07
2019-03-23T08:03:51.678Z,9.70
2019-03-23T08:06:40.506Z,10.20
2019-03-23T08:09:37.285Z,9.87
2019-03-23T08:12:19.787Z,10.15
2019-03-23T08:15:29.516Z,9.87
2019-03-23T08:18:18.368Z,9.33
2019-03-23T08:21:07.153Z,10.30
2019-03-23T08:27:09.111Z,9.40
2019-03-23T08:29:57.893Z,10.13
2019-03-23T08:32:46.695Z,10.68
2019-03-23T08:35:35.481Z,11.28
2019-03-23T08:38:24.261Z,10.98
2019-03-23T08:41:13.067Z,10.88
2019-03-23T08:44:01.846Z,13.08
2019-03-23T08:46:50.675Z,12.03
2019-03-23T08:49:32.227Z,14.65
2019-03-23T08:52:21.011Z,17.98
2019-03-23T08:58:04.472Z,14.43
2019-03-23T09:00:53.280Z,16.17
2019-03-23T09:03:52.130Z,15.80
2019-03-23T09:06:51.585Z,15.88
2019-03-23T09:09:40.397Z,15.93
2019-03-23T09:12:29.185Z,17.75
2019-03-23T09:15:17.980Z,18.10
2019-03-23T09:18:06.769Z,17.67
2019-03-23T10:20:08.566Z,13.28
2019-03-23T10:22:38.029Z,12.90
2019-03-23T10:25:08.599Z,12.58
2019-03-23T10:27:38.082Z,17.45
2019-03-23T10:30:10.421Z,15.65
2019-03-23T10:32:40.418Z,11.53
2019-03-23T10:35:10.632Z,14.80
2019-03-23T10:37:40.661Z,13.20
2019-03-23T10:40:11.897Z,15.00
2019-03-23T11:16:26.780Z,8.25
2019-03-23T11:18:57.190Z,18.42
2019-03-23T11:21:27.761Z,22.60
2019-03-23T11:23:59.914Z,22.55
2019-03-23T11:26:29.377Z,21.05
2019-03-23T11:28:58.829Z,21.75
2019-03-23T11:31:28.358Z,21.62
2019-03-23T11:33:59.723Z,20.97
2019-03-23T11:36:29.165Z,22.63
2019-03-23T11:38:58.674Z,21.07
2019-03-23T11:41:29.589Z,20.12
2019-03-23T11:43:59.030Z,20.43
2019-03-23T11:46:28.491Z,18.37
2019-03-23T11:48:58.009Z,18.07
2019-03-23T11:51:27.463Z,19.17
2019-03-23T11:53:56.968Z,20.08
2019-03-23T11:56:30.483Z,36.50
2019-03-23T11:58:57.601Z,19.82
2019-03-23T12:01:27.053Z,20.62
2019-03-23T12:03:56.487Z,21.17
2019-03-23T12:06:25.944Z,23.02
2019-03-23T12:08:55.382Z,22.20
2019-03-23T12:11:24.860Z,24.80
2019-03-23T12:13:54.300Z,24.67
2019-03-23T12:16:23.773Z,23.70
2019-03-23T12:18:53.208Z,25.23
2019-03-23T12:21:24.539Z,28.45
2019-03-23T12:23:54.032Z,43.73
2019-03-23T12:26:23.654Z,25.40
2019-03-23T12:28:53.102Z,25.12
2019-03-23T12:31:22.559Z,23.95
2019-03-23T12:33:52.001Z,24.72
2019-03-23T12:36:21.488Z,24.37
2019-03-23T12:38:50.982Z,44.35
2019-03-23T12:41:23.384Z,33.85
2019-03-23T12:43:51.595Z,24.45
2019-03-23T12:46:21.047Z,24.27
2019-03-23T12:48:50.487Z,8.85
